createdAt,value
2022-08-26T00:02:12.953Z,97697.06
2022-08-26T00:04:41.197Z,97699.69
2022-08-26T00:07:09.319Z,97708.63
2022-08-26T00:09:40.268Z,97686.72
2022-08-26T00:12:09.452Z,97692.75
2022-08-26T00:14:40.939Z,97696.97
2022-08-26T00:17:09.272Z,97696.97
2022-08-26T00:19:38.671Z,97695.34
2022-08-26T00:22:07.185Z,97697.16
2022-08-26T00:24:35.170Z,97702.66
2022-08-26T00:27:03.402Z,97700.94
2022-08-26T00:29:35.466Z,97695.31
2022-08-26T00:32:06.102Z,97692.56
2022-08-26T00:34:34.228Z,97694.03
2022-08-26T00:37:03.618Z,97697.25
2022-08-26T00:39:31.779Z,97700.66
2022-08-26T00:42:00.640Z,97691.63
2022-08-26T00:44:30.237Z,97686.94
2022-08-26T00:47:02.746Z,97699.41
2022-08-26T00:49:37.805Z,97700.53
2022-08-26T00:52:12.105Z,97691.38
2022-08-26T00:54:46.779Z,97697.53
2022-08-26T00:57:17.095Z,97697.53
2022-08-26T00:59:46.921Z,97695.91
2022-08-26T01:02:20.705Z,97698.53
2022-08-26T01:04:55.808Z,97696.66
2022-08-26T01:07:27.540Z,97704.41
2022-08-26T01:09:59.683Z,97703.63
2022-08-26T01:12:29.786Z,97696.41
2022-08-26T01:14:57.637Z,97704.31
2022-08-26T01:17:25.966Z,97699.03
2022-08-26T01:20:01.263Z,97704.97
2022-08-26T01:22:33.088Z,97697.88
2022-08-26T01:25:03.614Z,97691.13
2022-08-26T01:27:32.952Z,97699.22
2022-08-26T01:30:02.441Z,97699.09
2022-08-26T01:32:31.545Z,97690.53
2022-08-26T01:35:00.014Z,97693.94
2022-08-26T01:37:33.041Z,97693.13
2022-08-26T01:40:02.718Z,97689.91
2022-08-26T01:42:30.861Z,97691.88
2022-08-26T01:45:02.809Z,97693.81
2022-08-26T01:47:33.128Z,97700.09
2022-08-26T01:50:03.574Z,97692.28
2022-08-26T01:52:34.595Z,97697.16
2022-08-26T01:55:04.677Z,97706.34
2022-08-26T01:57:32.972Z,97707.69
2022-08-26T02:00:04.098Z,97703.34
2022-08-26T02:05:03.041Z,97715.94
2022-08-26T02:07:31.572Z,97715.78
2022-08-26T02:10:03.402Z,97712.59
2022-08-26T02:12:32.277Z,97717.47
2022-08-26T02:15:02.636Z,97719.41
2022-08-26T02:17:36.287Z,97711.19
2022-08-26T02:20:13.096Z,97713.13
2022-08-26T02:22:45.235Z,97709.09
2022-08-26T02:25:19.668Z,97709.75
2022-08-26T02:27:48.355Z,97702.69
2022-08-26T02:30:19.283Z,97715.09
2022-08-26T02:32:49.557Z,97712.53
2022-08-26T02:35:20.168Z,97708.34
2022-08-26T02:37:49.365Z,97712.34
2022-08-26T02:40:21.967Z,97714.13
2022-08-26T02:42:50.425Z,97705.91
2022-08-26T02:45:23.284Z,97708.97
2022-08-26T02:47:53.198Z,97712.50
2022-08-26T02:50:22.287Z,97707.69
2022-08-26T02:52:50.416Z,97705.28
2022-08-26T02:55:20.467Z,97701.09
2022-08-26T02:57:48.292Z,97693.06
2022-08-26T03:00:17.329Z,97699.19
2022-08-26T03:02:45.583Z,97699.22
2022-08-26T03:05:14.071Z,97703.09
2022-08-26T03:07:43.845Z,97700.34
2022-08-26T03:10:13.797Z,97709.84
2022-08-26T03:12:47.352Z,97708.72
2022-08-26T03:15:18.396Z,97701.97
2022-08-26T03:17:47.239Z,97701.97
2022-08-26T03:20:15.783Z,97700.84
2022-08-26T03:22:46.039Z,97690.88
2022-08-26T03:25:15.966Z,97697.97
2022-08-26T03:27:45.213Z,97699.09
2022-08-26T03:30:32.242Z,97698.28
2022-08-26T03:33:01.129Z,97697.16
2022-08-26T03:35:29.310Z,97687.81
2022-08-26T03:37:57.468Z,97689.91
2022-08-26T03:40:26.083Z,97690.38
2022-08-26T03:42:59.212Z,97692.16
2022-08-26T03:45:28.354Z,97697.97
2022-08-26T03:47:57.799Z,97698.63
2022-08-26T03:50:26.972Z,97689.28
2022-08-26T03:52:55.826Z,97697.69
2022-08-26T03:55:25.616Z,97697.06
2022-08-26T03:57:55.404Z,97698.53
2022-08-26T04:00:24.764Z,97691.44
2022-08-26T04:02:53.624Z,97695.47
2022-08-26T04:05:23.056Z,97693.53
2022-08-26T04:07:51.633Z,97688.88
2022-08-26T04:10:28.971Z,97691.13
2022-08-26T04:13:06.185Z,97687.59
2022-08-26T04:15:35.984Z,97687.09
2022-08-26T04:18:04.249Z,97686.28
2022-08-26T04:20:32.149Z,97687.91
2022-08-26T04:23:00.623Z,97688.22
2022-08-26T04:25:28.541Z,97692.09
2022-08-26T04:27:56.385Z,97696.78
2022-08-26T04:30:25.557Z,97686.31
2022-08-26T04:32:54.836Z,97690.03
2022-08-26T04:35:25.926Z,97690.66
2022-08-26T04:37:55.518Z,97692.09
2022-08-26T04:40:23.711Z,97694.69
2022-08-26T04:42:51.669Z,97696.28
2022-08-26T04:45:22.806Z,97699.84
2022-08-26T04:47:56.458Z,97691.63
2022-08-26T04:50:26.597Z,97689.53
2022-08-26T04:52:55.341Z,97700.63
2022-08-26T04:55:25.335Z,97697.25
2022-08-26T04:58:08.841Z,97699.19
2022-08-26T05:00:38.915Z,97698.06
2022-08-26T05:03:10.556Z,97695.31
2022-08-26T05:05:40.925Z,97695.00
2022-08-26T05:08:09.233Z,97690.19
2022-08-26T05:10:41.272Z,97690.19
2022-08-26T05:13:10.972Z,97693.56
2022-08-26T05:15:40.009Z,97692.75
2022-08-26T05:18:11.300Z,97688.38
2022-08-26T05:20:41.242Z,97696.53
2022-08-26T05:23:09.455Z,97696.53
2022-08-26T05:25:39.028Z,97696.06
2022-08-26T05:28:07.770Z,97700.72
2022-08-26T05:30:35.815Z,97702.88
2022-08-26T05:33:04.178Z,97710.28
2022-08-26T05:35:34.265Z,97714.63
2022-08-26T05:38:08.259Z,97714.63
2022-08-26T05:40:41.995Z,97709.63
2022-08-26T05:43:13.530Z,97712.22
2022-08-26T05:45:46.261Z,97711.19
2022-08-26T05:48:16.100Z,97704.75
2022-08-26T05:50:50.911Z,97713.44
2022-08-26T05:53:24.015Z,97710.06
2022-08-26T05:55:55.276Z,97717.94
2022-08-26T05:58:24.579Z,97709.88
2022-08-26T06:00:59.960Z,97721.78
2022-08-26T06:03:30.461Z,97718.53
2022-08-26T06:06:06.242Z,97715.47
2022-08-26T06:08:35.868Z,97717.88
2022-08-26T06:11:06.664Z,97719.44
2022-08-26T06:13:36.543Z,97717.19
2022-08-26T06:16:07.370Z,97728.06
2022-08-26T06:18:44.333Z,97728.03
2022-08-26T06:21:17.855Z,97732.16
2022-08-26T06:24:04.475Z,97728.25
2022-08-26T06:26:33.552Z,97733.00
2022-08-26T06:29:01.979Z,97730.25
2022-08-26T06:31:33.612Z,97735.81
2022-08-26T06:34:03.150Z,97723.84
2022-08-26T06:36:39.465Z,97734.16
2022-08-26T06:39:09.563Z,97720.06
2022-08-26T06:41:43.179Z,97727.16
2022-08-26T06:44:12.368Z,97731.44
2022-08-26T06:46:41.237Z,97724.91
2022-08-26T06:49:09.486Z,97737.41
2022-08-26T06:51:40.960Z,97735.53
2022-08-26T06:54:09.633Z,97740.41
2022-08-26T06:56:40.258Z,97741.94
2022-08-26T06:59:12.506Z,97734.97
2022-08-26T07:01:44.822Z,97736.94
2022-08-26T07:04:15.745Z,97733.09
2022-08-26T07:06:52.418Z,97734.75
2022-08-26T07:09:23.740Z,97734.88
2022-08-26T07:11:56.176Z,97726.13
2022-08-26T07:14:26.257Z,97738.41
2022-08-26T07:16:54.826Z,97737.91
2022-08-26T07:19:31.092Z,97738.75
2022-08-26T07:22:03.247Z,97733.66
2022-08-26T07:24:32.502Z,97746.22
2022-08-26T07:27:01.857Z,97743.97
2022-08-26T07:29:31.064Z,97737.19
2022-08-26T07:31:59.221Z,97738.28
2022-08-26T07:34:27.963Z,97741.91
2022-08-26T07:36:57.059Z,97745.41
2022-08-26T07:39:27.561Z,97741.66
2022-08-26T07:41:56.152Z,97745.59
2022-08-26T07:44:27.298Z,97741.19
2022-08-26T07:47:00.084Z,97742.50
2022-08-26T07:49:31.483Z,97743.84
2022-08-26T07:51:59.763Z,97741.09
2022-08-26T07:54:30.179Z,97744.88
2022-08-26T07:57:00.956Z,97746.56
2022-08-26T07:59:39.930Z,97742.88
2022-08-26T08:02:11.222Z,97735.34
2022-08-26T08:04:39.288Z,97737.28
2022-08-26T08:07:07.680Z,97727.22
2022-08-26T08:09:58.136Z,97734.78
2022-08-26T08:12:32.729Z,97734.97
2022-08-26T08:15:02.434Z,97732.28
2022-08-26T08:17:31.726Z,97731.63
2022-08-26T08:19:59.821Z,97735.47
2022-08-26T08:22:27.797Z,97735.91
2022-08-26T08:24:58.076Z,97723.00
2022-08-26T08:27:27.814Z,97726.78
2022-08-26T08:29:56.839Z,97728.66
2022-08-26T08:32:24.919Z,97728.91
2022-08-26T08:34:53.775Z,97729.25
2022-08-26T08:37:21.795Z,97729.34
2022-08-26T08:39:50.215Z,97728.47
2022-08-26T08:45:23.790Z,97720.19
2022-08-26T08:47:54.753Z,97717.75
2022-08-26T08:50:27.080Z,97717.06
2022-08-26T08:53:05.170Z,97721.81
2022-08-26T08:55:43.446Z,97718.22
2022-08-26T08:58:19.652Z,97718.69
2022-08-26T09:00:51.732Z,97709.56
2022-08-26T09:03:32.740Z,97707.75
2022-08-26T09:06:01.895Z,97706.63
2022-08-26T09:08:35.239Z,97711.78
2022-08-26T09:11:04.437Z,97708.25
2022-08-26T09:13:34.389Z,97702.38
2022-08-26T09:16:08.342Z,97710.94
2022-08-26T09:18:57.134Z,97706.34
2022-08-26T09:21:29.935Z,97697.00
2022-08-26T09:23:59.255Z,97693.66
2022-08-26T09:26:30.880Z,97699.56
2022-08-26T09:29:03.074Z,97691.34
2022-08-26T09:31:33.046Z,97691.13
2022-08-26T09:34:08.897Z,97681.72
2022-08-26T09:36:41.405Z,97688.69
2022-08-26T09:39:26.094Z,97681.25
2022-08-26T09:42:05.799Z,97680.31
2022-08-26T09:44:53.790Z,97672.91
2022-08-26T09:47:25.317Z,97665.25
2022-08-26T09:49:59.388Z,97661.19
2022-08-26T09:52:27.962Z,97653.09
2022-08-26T09:55:04.649Z,97653.44
2022-08-26T09:57:37.404Z,97660.50
2022-08-26T10:00:25.547Z,97662.72
2022-08-26T10:02:57.395Z,97661.41
2022-08-26T10:05:38.592Z,97669.19
2022-08-26T10:08:23.092Z,97674.94
2022-08-26T10:10:53.343Z,97685.69
2022-08-26T10:13:27.097Z,97682.38
2022-08-26T10:16:10.743Z,97694.28
2022-08-26T10:18:42.257Z,97758.69
2022-08-26T10:21:14.312Z,97749.13
2022-08-26T10:23:49.589Z,97739.81
2022-08-26T10:26:20.977Z,97745.75
2022-08-26T10:28:52.604Z,97767.34
2022-08-26T10:31:47.851Z,97728.97
2022-08-26T10:34:21.206Z,97704.78
2022-08-26T10:37:14.151Z,97688.03
2022-08-26T10:39:57.350Z,97689.06
2022-08-26T10:42:33.263Z,97692.28
2022-08-26T10:45:08.174Z,97681.22
2022-08-26T10:47:47.539Z,97671.28
2022-08-26T10:50:19.278Z,97664.94
2022-08-26T10:52:58.162Z,97665.72
2022-08-26T10:55:34.888Z,97659.09
2022-08-26T10:58:11.601Z,97657.75
2022-08-26T11:01:00.276Z,97663.41
2022-08-26T11:03:34.584Z,97651.97
2022-08-26T11:06:22.734Z,97666.19
2022-08-26T11:08:51.449Z,97653.38
2022-08-26T11:11:50.837Z,97652.84
2022-08-26T11:14:41.105Z,97651.94
2022-08-26T11:18:02.285Z,97645.19
2022-08-26T11:20:37.320Z,97647.47
2022-08-26T11:23:40.432Z,97639.97
2022-08-26T11:26:20.383Z,97638.19
2022-08-26T11:29:12.857Z,97633.78
2022-08-26T11:31:57.263Z,97623.19
2022-08-26T11:34:59.365Z,97624.75
2022-08-26T11:37:35.019Z,97617.00
2022-08-26T11:40:05.518Z,97622.31
2022-08-26T11:42:43.113Z,97610.78
2022-08-26T11:45:23.636Z,97615.00
2022-08-26T11:47:51.914Z,97605.34
2022-08-26T11:50:25.082Z,97626.53
2022-08-26T11:53:02.355Z,97635.03
2022-08-26T11:55:32.007Z,97657.28
2022-08-26T11:58:01.960Z,97649.19
2022-08-26T12:00:36.126Z,97656.38
2022-08-26T12:03:09.723Z,97647.13
2022-08-26T12:05:43.526Z,97634.34
2022-08-26T12:08:18.104Z,97636.75
2022-08-26T12:10:46.115Z,97624.47
2022-08-26T12:13:22.066Z,97625.34
2022-08-26T12:15:55.924Z,97621.34
2022-08-26T12:18:29.158Z,97635.22
2022-08-26T12:21:00.483Z,97635.59
2022-08-26T12:23:38.826Z,97646.53
2022-08-26T12:26:10.368Z,97643.22
2022-08-26T12:28:44.852Z,97635.22
2022-08-26T12:31:13.136Z,97620.25
2022-08-26T12:33:45.552Z,97619.44
2022-08-26T12:36:13.950Z,97607.63
2022-08-26T12:38:45.541Z,97605.28
2022-08-26T12:41:13.609Z,97602.91
2022-08-26T12:43:43.949Z,97606.47
2022-08-26T12:46:13.600Z,97609.13
2022-08-26T12:48:44.061Z,97596.06
2022-08-26T12:51:21.839Z,97596.84
2022-08-26T12:53:53.945Z,97599.25
2022-08-26T12:56:31.347Z,97604.06
2022-08-26T12:59:11.142Z,97604.47
2022-08-26T13:01:44.376Z,97594.69
2022-08-26T13:04:38.591Z,97587.59
2022-08-26T13:07:24.720Z,97589.19
2022-08-26T13:09:55.985Z,97584.81
2022-08-26T13:12:29.513Z,97581.34
2022-08-26T13:15:01.510Z,97578.31
2022-08-26T13:17:30.918Z,97578.41
2022-08-26T13:20:04.207Z,97572.19
2022-08-26T13:22:32.798Z,97568.28
2022-08-26T13:25:03.698Z,97568.34
2022-08-26T13:27:31.639Z,97566.84
2022-08-26T13:30:00.380Z,97552.34
2022-08-26T13:32:28.644Z,97559.25
2022-08-26T13:34:57.925Z,97546.72
2022-08-26T13:37:34.259Z,97552.69
2022-08-26T13:40:09.093Z,97552.41
2022-08-26T13:42:37.084Z,97549.72
2022-08-26T13:45:17.757Z,97552.19
2022-08-26T13:47:45.785Z,97551.56
2022-08-26T13:50:13.690Z,97547.41
2022-08-26T13:52:41.894Z,97547.09
2022-08-26T13:55:11.949Z,97545.72
2022-08-26T13:57:39.903Z,97545.94
2022-08-26T14:00:11.127Z,97551.75
2022-08-26T14:02:41.633Z,97544.91
2022-08-26T14:05:10.566Z,97529.41
2022-08-26T14:07:38.451Z,97543.94
2022-08-26T14:10:07.791Z,97532.53
2022-08-26T14:12:37.235Z,97534.94
2022-08-26T14:15:06.249Z,97523.53
2022-08-26T14:17:34.247Z,97518.03
2022-08-26T14:20:24.254Z,97517.22
2022-08-26T14:23:13.022Z,97519.19
2022-08-26T14:25:42.108Z,97516.22
2022-08-26T14:28:17.490Z,97519.50
2022-08-26T14:30:50.096Z,97523.94
2022-08-26T14:33:44.330Z,97519.66
2022-08-26T14:36:41.533Z,97526.03
2022-08-26T14:39:40.507Z,97528.56
2022-08-26T14:42:34.045Z,97521.03
2022-08-26T14:45:05.575Z,97520.22
2022-08-26T14:47:56.406Z,97505.06
2022-08-26T14:51:47.307Z,97506.22
2022-08-26T14:54:16.223Z,97505.78
2022-08-26T14:57:11.051Z,97508.41
2022-08-26T14:59:41.801Z,97506.28
2022-08-26T15:02:13.860Z,97515.22
2022-08-26T15:04:56.906Z,97517.44
2022-08-26T15:07:25.090Z,97510.19
2022-08-26T15:09:53.292Z,97515.19
2022-08-26T15:12:21.905Z,97520.94
2022-08-26T15:14:49.730Z,97504.19
2022-08-26T15:17:19.106Z,97506.84
2022-08-26T15:19:47.491Z,97505.94
2022-08-26T15:22:15.772Z,97505.00
2022-08-26T15:24:43.649Z,97509.59
2022-08-26T15:27:12.429Z,97509.41
2022-08-26T15:29:40.541Z,97506.16
2022-08-26T15:32:08.791Z,97508.03
2022-08-26T15:34:38.345Z,97509.50
2022-08-26T15:37:06.790Z,97504.63
2022-08-26T15:39:35.448Z,97503.72
2022-08-26T15:42:03.689Z,97507.16
2022-08-26T15:44:32.010Z,97496.44
2022-08-26T15:47:00.006Z,97496.34
2022-08-26T15:49:28.722Z,97505.25
2022-08-26T15:51:58.434Z,97499.66
2022-08-26T15:54:26.604Z,97486.56
2022-08-26T15:56:54.610Z,97494.72
2022-08-26T15:59:23.646Z,97486.69
2022-08-26T16:01:51.868Z,97494.84
2022-08-26T16:04:20.307Z,97500.31
2022-08-26T16:06:52.546Z,97503.44
2022-08-26T16:09:24.349Z,97511.94
2022-08-26T16:12:00.665Z,97517.78
2022-08-26T16:14:28.739Z,97523.19
2022-08-26T16:31:54.930Z,97595.53
2022-08-26T16:34:24.589Z,97617.47
2022-08-26T16:36:52.735Z,97622.06
2022-08-26T16:43:09.249Z,97620.69
2022-08-26T16:45:43.216Z,97630.84
2022-08-26T16:48:11.720Z,97624.78
2022-08-26T16:50:43.892Z,97624.66
2022-08-26T16:55:42.633Z,97638.75
2022-08-26T16:58:10.768Z,97623.75
2022-08-26T17:00:39.269Z,97642.09
2022-08-26T17:03:07.651Z,97631.69
2022-08-26T17:05:36.476Z,97643.63
2022-08-26T17:08:06.657Z,97637.34
2022-08-26T17:10:37.892Z,97638.03
2022-08-26T17:13:06.432Z,97647.56
2022-08-26T17:15:34.522Z,97648.47
2022-08-26T17:18:02.534Z,97655.00
2022-08-26T17:20:30.615Z,97655.16
2022-08-26T17:22:59.054Z,97650.34
2022-08-26T17:25:34.383Z,97639.09
2022-08-26T17:28:02.708Z,97635.31
2022-08-26T17:30:35.968Z,97636.47
2022-08-26T17:33:10.543Z,97633.84
2022-08-26T17:35:41.839Z,97624.22
2022-08-26T17:38:11.454Z,97634.16
2022-08-26T17:40:40.940Z,97641.63
2022-08-26T17:43:12.211Z,97632.56
2022-08-26T17:46:06.849Z,97637.38
2022-08-26T17:52:59.832Z,97635.53
2022-08-26T17:55:48.018Z,97655.09
2022-08-26T18:22:23.622Z,97692.22
2022-08-26T18:31:04.319Z,97698.50
2022-08-26T18:39:45.989Z,97702.16
2022-08-26T18:45:48.450Z,97710.53
2022-08-26T18:48:20.301Z,97720.34
2022-08-26T18:50:49.384Z,97723.72
2022-08-26T18:53:19.387Z,97733.53
2022-08-26T18:55:47.934Z,97730.19
2022-08-26T18:58:16.409Z,97738.41
2022-08-26T19:00:44.240Z,97737.88
2022-08-26T19:03:18.415Z,97741.22
2022-08-26T19:05:46.945Z,97751.97
2022-08-26T19:08:14.817Z,97752.47
2022-08-26T19:10:44.069Z,97766.50
2022-08-26T19:13:12.533Z,97761.69
2022-08-26T19:15:40.956Z,97764.19
2022-08-26T19:18:09.795Z,97754.69
2022-08-26T19:20:41.533Z,97763.09
2022-08-26T19:23:30.201Z,97760.34
2022-08-26T19:26:04.603Z,97765.69
2022-08-26T19:28:32.787Z,97756.34
2022-08-26T19:31:01.065Z,97752.97
2022-08-26T19:33:29.059Z,97754.94
2022-08-26T19:35:56.900Z,97751.06
2022-08-26T19:38:24.753Z,97751.91
2022-08-26T19:40:55.670Z,97748.88
2022-08-26T19:43:24.880Z,97748.28
2022-08-26T19:45:53.173Z,97739.91
2022-08-26T19:48:21.127Z,97742.03
2022-08-26T19:50:49.492Z,97736.41
2022-08-26T19:53:17.329Z,97741.25
2022-08-26T19:55:45.172Z,97749.66
2022-08-26T19:58:12.968Z,97740.63
2022-08-26T20:00:42.840Z,97738.84
2022-08-26T20:03:15.822Z,97737.56
2022-08-26T20:05:43.928Z,97740.97
2022-08-26T20:08:16.783Z,97742.13
2022-08-26T20:10:50.802Z,97755.19
2022-08-26T20:13:19.019Z,97751.00
2022-08-26T20:15:48.292Z,97754.34
2022-08-26T20:18:30.001Z,97762.38
2022-08-26T20:21:15.804Z,97755.09
2022-08-26T20:23:44.068Z,97759.94
2022-08-26T20:26:11.957Z,97763.94
2022-08-26T20:28:39.832Z,97771.06
2022-08-26T20:33:46.011Z,97782.84
2022-08-26T20:36:14.971Z,97780.97
2022-08-26T20:38:43.047Z,97783.41
2022-08-26T20:41:11.064Z,97783.09
2022-08-26T20:43:38.905Z,97786.78
2022-08-26T20:46:10.571Z,97789.06
2022-08-26T20:48:46.953Z,97791.97
2022-08-26T20:51:15.204Z,97782.00
2022-08-26T20:53:44.252Z,97777.81
2022-08-26T20:56:13.595Z,97776.84
2022-08-26T20:58:42.023Z,97770.06
2022-08-26T21:01:18.982Z,97773.63
2022-08-26T21:03:48.478Z,97765.59
2022-08-26T21:06:16.372Z,97769.28
2022-08-26T21:08:44.877Z,97767.69
2022-08-26T21:11:12.907Z,97764.00
2022-08-26T21:14:03.540Z,97775.56
2022-08-26T21:16:31.320Z,97784.25
2022-08-26T21:19:00.531Z,97793.28
2022-08-26T21:21:28.518Z,97795.53
2022-08-26T21:23:56.477Z,97790.06
2022-08-26T21:26:24.878Z,97801.19
2022-08-26T21:28:52.757Z,97810.03
2022-08-26T21:31:24.805Z,97807.78
2022-08-26T21:33:54.269Z,97808.41
2022-08-26T21:36:22.152Z,97803.09
2022-08-26T21:38:50.167Z,97806.16
2022-08-26T21:41:20.843Z,97806.00
2022-08-26T21:43:50.079Z,97807.94
2022-08-26T21:46:21.903Z,97798.44
2022-08-26T21:48:51.294Z,97803.91
2022-08-26T21:51:23.228Z,97801.34
2022-08-26T21:53:52.752Z,97809.88
2022-08-26T21:56:21.725Z,97809.06
2022-08-26T21:58:49.982Z,97809.22
2022-08-26T22:01:22.359Z,97798.59
2022-08-26T22:03:52.614Z,97815.50
2022-08-26T22:06:23.228Z,97810.84
2022-08-26T22:08:51.511Z,97813.88
2022-08-26T22:11:19.698Z,97807.28
2022-08-26T22:13:48.608Z,97802.94
2022-08-26T22:16:16.709Z,97798.13
2022-08-26T22:18:45.869Z,97802.31
2022-08-26T22:21:15.277Z,97800.72
2022-08-26T22:23:44.902Z,97800.06
2022-08-26T22:26:15.170Z,97798.94
2022-08-26T22:28:51.222Z,97788.00
2022-08-26T22:31:35.309Z,97803.78
2022-08-26T22:34:07.536Z,97798.78
2022-08-26T22:36:36.076Z,97799.44
2022-08-26T22:39:12.996Z,97802.50
2022-08-26T22:41:43.273Z,97795.41
2022-08-26T22:44:11.713Z,97800.41
2022-08-26T22:46:39.872Z,97805.56
2022-08-26T22:49:09.530Z,97811.50
2022-08-26T22:51:37.473Z,97812.78
2022-08-26T22:54:05.871Z,97823.38
2022-08-26T22:56:35.474Z,97822.75
2022-08-26T22:59:04.137Z,97824.03
2022-08-26T23:01:32.110Z,97823.56
2022-08-26T23:04:00.022Z,97822.63
2022-08-26T23:06:27.918Z,97818.25
2022-08-26T23:08:55.799Z,97831.47
2022-08-26T23:11:23.592Z,97822.13
2022-08-26T23:13:52.815Z,97819.22
2022-08-26T23:16:21.139Z,97822.75
2022-08-26T23:18:49.022Z,97824.38
2022-08-26T23:21:19.116Z,97818.91
2022-08-26T23:23:52.695Z,97820.97
2022-08-26T23:26:22.220Z,97809.56
2022-08-26T23:28:55.452Z,97816.31
2022-08-26T23:31:47.377Z,97814.38
2022-08-26T23:34:35.139Z,97800.22
2022-08-26T23:37:12.431Z,97799.41
2022-08-26T23:42:49.267Z,97806.00
2022-08-26T23:48:36.602Z,97802.13
2022-08-26T23:51:54.909Z,97803.09
2022-08-26T23:54:37.085Z,97798.28
2022-08-26T23:57:11.579Z,97803.91
2022-08-26T23:59:39.657Z,97802.97
